Hamden, New York
Current Conditions -  °F | °C
As of 2:55 PM on Monday 24 Nov 2014 (Local Time) from KMSV Reporting Station
Broken Clouds Broken Clouds  
Wind Chill: 61°   Ceiling: 3600
Heat Index: 61°   Visibility: 10mi
Dew Point: 55°   Wind: 8mph
Humidity: 82%   Direction: 210°SSW
Pressure: 29.55"   Gusts: NA
Location:  42.19°N, 74.99°W
Report Text: KMSV 241955Z AUTO 21007KT 10SM BKN036 BKN044 BKN050 16/13 A2955 RMK AO1
Loading
Personal Weather Stations






























Interactive Weather Map New forecast layout! Learn more

10-Day Weather Forecast

Advertisements
Track Severe Weather on mobile